SCVM 170600Z 16004KT CAVOK 12/11 Q1017